Blythe Airport
KBLH : now visible

Airfield :











YOU CAN JOIN US ON...

 
LOGIN :

Register | Disclaimer

   EN    FR    IT 

 









Legend :    VFR   Marginal VFR   IFR   Intensive IFR   Very Intensive IFR
Visi :
Ceiling :
>= 8 km
>= 3000ft
5 to 8 km
1000 to 3000 ft
1500m to 5 km
500 to 1000 ft
800 to 1500m
200 to 500 ft
< 800m
< 200 ft
Symbols :   Thunderstorms  Fog  Heavy snow  Heavy precipitations  Wind > 20 kt






- Airport Elevation : 399 ft


KBLH - Blythe

CURRENT METAR :
  • 150752Z AUTO 24005KT 10SM CLR 13/06 A2978 RMK AO2 SLP081 T01330056 402220078

EXPIRED METARs :
  • 150652Z AUTO 23004KT 10SM CLR 14/07 A2978 RMK AO2 SLP082 T01390072
  • 150552Z AUTO 24006KT 10SM CLR 15/08 A2978 RMK AO2 SLP080 T01500078 10217 20133 53008

TAF KBLH
Valid from the 15 at 06:00 until the 16 at 06:00 UTC


150526Z 1506/1606 VRB05KT P6SM SCT200
FM150900 31008KT P6SM FEW050 SCT200
FM151700 33015G22KT P6SM SKC
FM160100 34009KT P6SM SKC



MET'MAP, your aeronautical weather chart ! - Copyright ORBIFLY December 2007 - Disclaimer

ORBIFLY MET'MAP TEAM :

Programming & Development : Alexandra Zaïnal
Concept & original design : Baudouin d'Aumeries
Assistance for programming : Marc-Olivier Méhu
Technical & hardware support : Manuel Goepfert

Contact : metmap@orbifly.com




SOURCES & CREDITS :

   NOAA       Earth
Advisory